x

Bw Pioneer Buoy - Walker Ridge 249 (42360) Wave Buoy

7:00am - Tue 28th Jun 2016 All times are UTC.

  • Sig Wave height 1.3ft
  • Peak Period 5s
  • Wind
    7mph
  • Sea Temp 86°f
  • Air Temp 83°f
  • Sea Pressure 1016.5mb

More Historic Weather Station data

Upgrade to MSW Pro to gain access to the past 30 days of data for over 8000 Wavebouys and Weather Stations around the globe.

Join Pro

Comparision Forecast

View Surf forecast
   
Tue 06/28 7:00am 1.3ft 5s 7
mph
1016.5mb 86f 83f
6:00am 1.3ft 5s 4 7 mph 1017mb 86f 83f
5:00am 1.3ft 5s 4 7 mph 1017.2mb 86f 83f
4:00am 1.3ft 4s 2
mph
1017.5mb 86f 83f
3:00am 1.3ft 5s 2
mph
1017mb 86f 83f
2:00am 1.3ft 6s 4 7 mph 1015.8mb 86f 83f
1:00am 1.3ft 4s 7
mph
1015mb 86f 83f
12:00am 1ft 5s 7
mph
1015mb 86f 83f
Mon 06/27 11:00pm 1.3ft 9s 9
mph
1015.3mb 87f 83f
10:00pm 1.3ft 5s 9 11 mph 1015.5mb 87f 83f
9:00pm 1.3ft 5s 11
mph
1016.3mb 87f 83f
8:00pm 1.3ft 7s 7 9 mph 1017mb 86f 82f
7:00pm 1.3ft 5s 9 11 mph 1017.7mb 86f 82f
6:00pm 1.3ft 5s 9 11 mph 1018mb 86f 82f
5:00pm 1.6ft 4s 2 4 mph 1018.5mb 86f 82f
4:00pm 1.6ft 7s 2 4 mph 1019mb 85f 79f
3:00pm 1.6ft 5s 7 9 mph 1019mb 86f 79f
2:00pm 1.3ft 4s 18 20 mph 1019mb 86f 80f
1:00pm 1.3ft 5s 9
mph
1017.7mb 86f 82f
12:00pm 1.6ft 5s 11 18 mph 1017.7mb 86f 82f
11:00am 1.6ft 4s 2
mph
1017.2mb 86f 83f
10:00am 1.6ft 5s 2 4 mph 1017mb 86f 83f
9:00am 2ft 4s 4 7 mph 1017mb 86f 83f
8:00am 2ft 4s 7
mph
1016.8mb 86f 83f
7:00am 2ft 5s 9 11 mph 1016.5mb 86f 83f
6:00am 2ft 4s 9 11 mph 1017mb 86f 83f
5:00am 2ft 4s 9 11 mph 1017.7mb 86f 83f
4:00am 2ft 5s 9 11 mph 1018mb 86f 83f
3:00am 2.5ft 5s 11 13 mph 1017.2mb 86f 83f
2:00am 2.5ft 4s 11 13 mph 1017mb 86f 83f
1:00am 2.5ft 4s 11
mph
1016.5mb 86f 83f
12:00am 2.5ft 4s 11 13 mph 1016.8mb 86f 83f
Sun 06/26 11:00pm 2.5ft 4s 11
mph
1016.8mb 86f 83f
10:00pm 2.5ft 4s 18
mph
1017.5mb 86f 84f
9:00pm 2.5ft 4s 16 18 mph 1018mb 86f 84f
8:00pm 2.5ft 3s 16 18 mph 1018.7mb 86f 83f
7:00pm 2ft 6s 16 18 mph 1018.7mb 86f 84f
6:00pm 1.6ft 5s 18 20 mph 1019.4mb 86f 83f
5:00pm 1.6ft 5s 13 16 mph 1019.4mb 86f 83f
4:00pm 1.6ft 5s 9 11 mph 1019.7mb 86f 84f
3:00pm 1.6ft 5s 7 9 mph 1019.7mb 86f 84f
2:00pm 1.6ft 4s 7
mph
1019.4mb 86f 84f
1:00pm 1.6ft 4s 4
mph
1019mb 86f 85f
12:00pm 1.6ft 4s 4 7 mph 1018.5mb 86f 83f
11:00am 2ft 4s 4 7 mph 1018.2mb 86f 83f
10:00am 1.6ft 4s 9 11 mph 1017.2mb 86f 83f
9:00am  -   -  9
mph
- 86f -
8:00am 2.5ft 4s 9 11 mph 1017.2mb 86f 83f
7:00am 2ft 4s 11 13 mph 1017.7mb 86f 83f
6:00am 2ft 4s 13 16 mph 1017.7mb 86f 83f
5:00am 2ft 4s 13 16 mph 1018.5mb 86f 84f
4:00am 2ft 4s 16 20 mph 1018.2mb 86f 84f
3:00am 2ft 3s 13 16 mph 1018mb 86f 84f
2:00am 1.6ft 4s 13
mph
1017.5mb 86f 84f
1:00am 1.6ft 3s 13 18 mph 1017.5mb 86f 84f
12:00am 1.6ft 3s 13 16 mph 1017.2mb 86f 84f
Sat 06/25 11:00pm 1.6ft 3s 11 13 mph 1017.2mb 86f 84f
10:00pm 1.6ft 4s 11 13 mph 1017.7mb 87f 84f
9:00pm 1.6ft 4s 11 13 mph 1018mb 86f 84f
8:00pm 1.6ft 4s 13
mph
1018.5mb 86f 84f
7:00pm 1.3ft 4s 11 16 mph 1018.7mb 87f 84f
6:00pm 1.3ft 4s 9 11 mph - 86f -
5:00pm 1.3ft 4s 9
mph
1019.2mb 86f 84f
4:00pm 1.3ft 4s 7 9 mph 1019.4mb 86f 84f
3:00pm 1.3ft 6s 7 9 mph 1019.2mb 86f 84f
2:00pm 1.3ft 3s 7
mph
1019.2mb 86f 84f
1:00pm 1.3ft 3s 7 9 mph 1019mb 86f 84f
12:00pm 1.3ft 3s 7 9 mph 1018.5mb 86f 83f
11:00am 1.3ft 3s 9
mph
1018mb 85f 83f
10:00am 1.3ft 3s 9
mph
1017.5mb - 83f
9:00am 1.3ft 7s 9 11 mph 1017.2mb 86f 83f
8:00am 1.3ft 5s 11
mph
1017mb 86f 83f
7:00am 1.3ft 5s 9 11 mph 1017.5mb 86f 83f
6:00am 1.3ft 3s 9 11 mph 1017.7mb 86f 83f
5:00am 1.3ft 8s 11 13 mph 1017.7mb 86f 84f
4:00am 1.3ft 7s 11 13 mph 1018mb 86f 84f
3:00am 1.3ft 5s 11
mph
1017.7mb 86f 84f
2:00am 1.3ft 5s 9 11 mph - 86f 84f
1:00am 1.3ft 5s 9 11 mph 1017.5mb 86f 84f
12:00am 1.3ft 5s 9 11 mph 1017.5mb 87f 84f
Fri 06/24 11:00pm 1.3ft 5s 9 11 mph 1017.5mb 87f 84f
10:00pm 1.3ft 5s 11
mph
1017.5mb 87f 84f
9:00pm 1.3ft 5s 9
mph
1018.2mb 87f 84f
8:00pm 1.3ft 5s 7 9 mph 1018.7mb 87f 84f
7:00pm 1.3ft 5s 7 9 mph 1019.2mb 86f 84f
6:00pm 1.3ft 5s 7
mph
1019.7mb 86f 84f
5:00pm 1.6ft 5s 4 7 mph 1020.2mb 86f 84f
4:00pm 1.6ft 4s 4 7 mph 1020.4mb 86f 84f
3:00pm 1.6ft 4s 7
mph
1020.2mb 86f 83f
2:00pm 1.6ft 4s 7 9 mph 1019.9mb 85f 84f
1:00pm 1.6ft 8s 7 9 mph 1019.4mb 85f 83f
12:00pm 2ft 8s 9
mph
1019mb 85f 83f
11:00am 2ft 9s 7 9 mph 1018.5mb 85f 83f
10:00am 2ft 8s 11
mph
1018.2mb 85f 83f
9:00am 2ft 9s 11 13 mph 1017.7mb 85f 83f